createdAt,value
2022-12-04T08:04:57.381Z,102399.28
2022-12-04T08:07:35.355Z,102391.44
2022-12-04T08:10:13.414Z,102391.44
2022-12-04T08:12:50.549Z,102388.78
2022-12-04T08:15:28.274Z,102384.41
2022-12-04T08:18:05.544Z,102385.31
2022-12-04T08:20:44.985Z,102390.53
2022-12-04T08:23:22.193Z,102385.31
2022-12-04T08:26:02.490Z,102387.94
2022-12-04T08:28:40.853Z,102390.53
2022-12-04T08:31:21.071Z,102389.69
2022-12-04T08:34:01.082Z,102386.16
2022-12-04T08:36:40.545Z,102395.72
2022-12-04T08:39:17.754Z,102395.75
2022-12-04T08:41:57.162Z,102391.41
2022-12-04T08:44:34.642Z,102399.25
2022-12-04T08:47:11.454Z,102393.13
2022-12-04T08:49:48.604Z,102406.22
2022-12-04T08:56:48.711Z,102389.53
2022-12-04T08:59:26.512Z,102394.81
2022-12-04T09:02:04.237Z,102391.34
2022-12-04T09:04:42.077Z,102392.19
2022-12-04T09:07:19.924Z,102388.75
2022-12-04T09:09:58.110Z,102401.84
2022-12-04T09:12:38.586Z,102400.06
2022-12-04T09:15:16.555Z,102398.28
2022-12-04T09:17:54.384Z,102399.19
2022-12-04T09:20:32.904Z,102396.56
2022-12-04T09:23:14.391Z,102406.13
2022-12-04T09:25:53.372Z,102390.41
2022-12-04T09:28:33.351Z,102399.13
2022-12-04T09:31:11.573Z,102390.38
2022-12-04T09:33:49.991Z,102391.28
2022-12-04T09:36:27.680Z,102388.63
2022-12-04T09:39:05.141Z,102381.66
2022-12-04T09:42:12.414Z,102379.81
2022-12-04T09:45:02.295Z,102375.44
2022-12-04T09:47:47.406Z,102378.06
2022-12-04T09:50:28.772Z,102376.34
2022-12-04T09:53:13.874Z,102383.28
2022-12-04T09:56:02.964Z,102376.28
2022-12-04T09:58:49.448Z,102369.28
2022-12-04T10:01:39.634Z,102375.44
2022-12-04T10:04:18.528Z,102377.16
2022-12-04T10:07:06.077Z,102371.00
2022-12-04T10:09:54.296Z,102364.00
2022-12-04T10:12:44.354Z,102360.50
2022-12-04T10:15:35.931Z,102366.59
2022-12-04T10:18:35.906Z,102368.28
2022-12-04T10:21:39.615Z,102361.28
2022-12-04T10:24:43.625Z,102363.00
2022-12-04T10:27:29.594Z,102361.25
2022-12-04T10:30:17.760Z,102356.03
2022-12-04T10:33:03.533Z,102356.91
2022-12-04T10:35:48.344Z,102356.91
2022-12-04T10:38:39.093Z,102360.38
2022-12-04T10:41:25.934Z,102356.03
2022-12-04T10:44:03.699Z,102359.53
2022-12-04T10:46:45.741Z,102354.28
2022-12-04T10:49:28.065Z,102359.50
2022-12-04T10:52:08.757Z,102347.28
2022-12-04T10:54:52.886Z,102349.88
2022-12-04T10:57:39.393Z,102352.47
2022-12-04T11:00:31.628Z,102337.63
2022-12-04T11:03:25.794Z,102343.72
2022-12-04T11:06:05.555Z,102345.53
2022-12-04T11:08:53.762Z,102336.75
2022-12-04T11:11:34.635Z,102335.88
2022-12-04T11:14:19.904Z,102333.31
2022-12-04T11:17:07.641Z,102328.91
2022-12-04T11:19:45.003Z,102320.16
2022-12-04T11:22:23.519Z,102323.66
2022-12-04T11:25:03.899Z,102327.13
2022-12-04T11:27:41.988Z,102330.59
2022-12-04T11:30:25.382Z,102312.28
2022-12-04T11:33:03.439Z,102316.63
2022-12-04T11:35:40.749Z,102314.91
2022-12-04T11:38:24.603Z,102318.41
2022-12-04T11:41:11.793Z,102314.97
2022-12-04T11:43:59.360Z,102313.19
2022-12-04T11:46:39.420Z,102320.22
2022-12-04T11:49:26.808Z,102314.13
2022-12-04T11:52:25.920Z,102314.97
2022-12-04T11:55:15.960Z,102316.69
2022-12-04T11:58:20.449Z,102314.91
2022-12-04T12:01:15.743Z,102321.06
2022-12-04T12:04:36.444Z,102313.19
2022-12-04T12:07:33.574Z,102322.78
2022-12-04T12:10:17.908Z,102321.06
2022-12-04T12:13:10.534Z,102307.97
2022-12-04T12:15:57.028Z,102315.78
2022-12-04T12:19:02.232Z,102309.66
2022-12-04T12:21:51.295Z,102312.28
2022-12-04T12:24:35.685Z,102313.19
2022-12-04T12:27:48.977Z,102301.00
2022-12-04T12:30:33.945Z,102306.25
2022-12-04T12:33:23.273Z,102305.41
2022-12-04T12:36:09.820Z,102302.88
2022-12-04T12:38:55.169Z,102312.44
2022-12-04T12:41:42.786Z,102316.81
2022-12-04T12:44:27.899Z,102311.50
2022-12-04T12:47:21.967Z,102303.63
2022-12-04T12:50:05.513Z,102306.22
2022-12-04T12:52:55.219Z,102307.09
2022-12-04T12:55:39.835Z,102307.09
2022-12-04T12:58:22.741Z,102308.00
2022-12-04T13:01:12.695Z,102300.09
2022-12-04T13:04:07.392Z,102299.19
2022-12-04T13:06:48.319Z,102300.94
2022-12-04T13:09:32.768Z,102307.97
2022-12-04T13:12:16.839Z,102307.97
2022-12-04T13:14:55.341Z,102307.97
2022-12-04T13:17:39.965Z,102307.13
2022-12-04T13:20:27.644Z,102304.50
2022-12-04T13:23:24.722Z,102307.09
2022-12-04T13:26:14.799Z,102304.50
2022-12-04T13:29:01.052Z,102304.50
2022-12-04T13:31:54.205Z,102301.94
2022-12-04T13:34:51.944Z,102310.66
2022-12-04T13:37:55.066Z,102304.53
2022-12-04T13:40:51.600Z,102308.88
2022-12-04T13:43:48.682Z,102306.34
2022-12-04T13:46:35.814Z,102300.22
2022-12-04T13:49:29.709Z,102297.63
2022-12-04T13:52:23.276Z,102305.50
2022-12-04T13:55:04.813Z,102305.50
2022-12-04T13:57:44.501Z,102300.25
2022-12-04T14:00:32.645Z,102300.25
2022-12-04T14:03:26.773Z,102305.50
2022-12-04T14:06:08.375Z,102303.72
2022-12-04T14:08:47.705Z,102296.75
2022-12-04T14:11:29.193Z,102290.69
2022-12-04T14:14:08.358Z,102293.31
2022-12-04T14:16:51.110Z,102294.22
2022-12-04T14:19:38.306Z,102290.69
2022-12-04T14:22:32.655Z,102292.44
2022-12-04T14:25:38.443Z,102287.19
2022-12-04T14:28:46.443Z,102274.09
2022-12-04T14:31:40.835Z,102276.69
2022-12-04T14:34:27.852Z,102281.09
2022-12-04T14:37:08.080Z,102280.22
2022-12-04T14:39:52.044Z,102288.97
2022-12-04T14:42:33.623Z,102288.13
2022-12-04T14:45:29.206Z,102285.50
2022-12-04T14:48:33.826Z,102291.59
2022-12-04T14:51:24.144Z,102292.50
2022-12-04T14:54:13.859Z,102291.59
2022-12-04T14:57:10.534Z,102295.97
2022-12-04T14:59:53.161Z,102303.81
2022-12-04T15:02:42.742Z,102295.13
2022-12-04T15:05:26.589Z,102300.38
2022-12-04T15:08:05.840Z,102292.44
2022-12-04T15:10:57.426Z,102289.03
2022-12-04T15:13:38.998Z,102302.13
2022-12-04T15:16:23.349Z,102291.69
2022-12-04T15:19:10.582Z,102299.53
2022-12-04T15:21:50.276Z,102297.75
2022-12-04T15:24:29.510Z,102293.44
2022-12-04T15:27:11.523Z,102299.53
2022-12-04T15:29:55.214Z,102294.31
2022-12-04T15:32:34.766Z,102295.13
2022-12-04T15:35:27.512Z,102297.72
2022-12-04T15:38:06.516Z,102295.97
2022-12-04T15:40:56.817Z,102299.47
2022-12-04T15:43:42.509Z,102297.69
2022-12-04T15:46:40.911Z,102302.03
2022-12-04T15:49:24.755Z,102295.97
2022-12-04T15:52:19.835Z,102299.47
2022-12-04T15:55:04.114Z,102301.22
2022-12-04T15:57:44.911Z,102298.63
2022-12-04T16:00:33.906Z,102295.97
2022-12-04T16:03:29.660Z,102293.34
2022-12-04T16:06:11.412Z,102292.47
2022-12-04T16:08:55.328Z,102288.13
2022-12-04T16:11:39.117Z,102291.59
2022-12-04T16:14:22.832Z,102285.50
2022-12-04T16:17:06.554Z,102274.13
2022-12-04T16:19:45.372Z,102272.34
2022-12-04T16:22:27.690Z,102283.75
2022-12-04T16:25:09.616Z,102274.97
2022-12-04T16:27:46.987Z,102281.97
2022-12-04T16:30:34.997Z,102282.88
2022-12-04T16:33:16.555Z,102270.59
2022-12-04T16:35:58.104Z,102262.81
2022-12-04T16:38:38.786Z,102264.53
2022-12-04T16:41:22.186Z,102257.53
2022-12-04T16:44:06.238Z,102266.25
2022-12-04T16:46:44.487Z,102260.13
2022-12-04T16:49:22.300Z,102264.44
2022-12-04T16:52:00.765Z,102265.31
2022-12-04T16:54:42.557Z,102271.44
2022-12-04T16:57:24.152Z,102273.16
2022-12-04T17:00:03.567Z,102267.03
2022-12-04T17:02:41.808Z,102282.78
2022-12-04T17:05:24.688Z,102281.91
2022-12-04T17:08:03.184Z,102275.75
2022-12-04T17:10:43.891Z,102277.50
2022-12-04T17:13:27.047Z,102281.84
2022-12-04T17:16:07.200Z,102282.72
2022-12-04T17:18:45.682Z,102281.00
2022-12-04T17:21:31.929Z,102276.59
2022-12-04T17:24:12.646Z,102281.88
2022-12-04T17:26:50.731Z,102281.84
2022-12-04T17:29:32.361Z,102287.03
2022-12-04T17:32:12.631Z,102284.47
2022-12-04T17:34:50.818Z,102284.41
2022-12-04T17:37:33.002Z,102282.66
2022-12-04T17:40:15.876Z,102285.25
2022-12-04T17:42:53.541Z,102273.91
2022-12-04T17:45:34.739Z,102276.59
2022-12-04T17:48:13.260Z,102287.91
2022-12-04T17:50:53.959Z,102285.28
2022-12-04T17:53:32.008Z,102288.78
2022-12-04T17:56:14.917Z,102284.38
2022-12-04T17:58:54.033Z,102285.28
2022-12-04T18:04:28.476Z,102292.25
2022-12-04T18:07:07.790Z,102286.09
2022-12-04T18:09:47.039Z,102292.19
2022-12-04T18:12:26.181Z,102290.41
2022-12-04T18:15:04.406Z,102292.25
2022-12-04T18:17:45.541Z,102300.03
2022-12-04T18:20:23.833Z,102292.19
2022-12-04T18:23:03.151Z,102290.41
2022-12-04T18:25:41.350Z,102279.94
2022-12-04T18:28:19.620Z,102295.66
2022-12-04T18:30:56.970Z,102288.66
2022-12-04T18:33:41.085Z,102295.56
2022-12-04T18:36:23.001Z,102299.09
2022-12-04T18:39:04.916Z,102294.75
2022-12-04T18:41:44.215Z,102293.03
2022-12-04T18:44:24.054Z,102294.75
2022-12-04T18:47:01.952Z,102311.28
2022-12-04T18:49:42.791Z,102305.19
2022-12-04T18:52:20.552Z,102302.56
2022-12-04T18:55:01.690Z,102299.09
2022-12-04T18:57:39.750Z,102303.44
2022-12-04T19:00:30.801Z,102302.56
2022-12-04T19:03:09.081Z,102299.06
2022-12-04T19:05:57.195Z,102301.63
2022-12-04T19:08:45.120Z,102300.81
2022-12-04T19:11:23.350Z,102306.06
2022-12-04T19:14:08.333Z,102311.28
2022-12-04T19:16:53.461Z,102301.72
2022-12-04T19:19:31.908Z,102307.78
2022-12-04T19:22:12.601Z,102307.75
2022-12-04T19:24:51.170Z,102307.78
2022-12-04T19:27:31.158Z,102309.53
2022-12-04T19:30:11.287Z,102306.06
2022-12-04T19:32:49.736Z,102313.03
2022-12-04T19:35:29.100Z,102309.53
2022-12-04T19:38:10.766Z,102316.53
2022-12-04T19:40:49.792Z,102312.16
2022-12-04T19:43:29.408Z,102308.63
2022-12-04T19:46:08.472Z,102316.53
2022-12-04T19:48:52.336Z,102313.03
2022-12-04T19:51:32.947Z,102313.03
2022-12-04T19:54:21.686Z,102313.03
2022-12-04T19:57:00.717Z,102317.41
2022-12-04T19:59:44.517Z,102313.06
2022-12-04T20:02:26.438Z,102313.91
2022-12-04T20:05:05.295Z,102323.56
2022-12-04T20:07:42.994Z,102321.84
2022-12-04T20:10:23.485Z,102325.31
2022-12-04T20:13:04.664Z,102323.59
2022-12-04T20:15:43.484Z,102324.47
2022-12-04T20:18:21.777Z,102320.94
2022-12-04T20:21:00.978Z,102329.66
2022-12-04T20:23:40.216Z,102327.03
2022-12-04T20:26:35.382Z,102330.50
2022-12-04T20:29:25.730Z,102331.44
2022-12-04T20:32:04.609Z,102333.13
2022-12-04T20:34:44.027Z,102339.28
2022-12-04T20:37:23.176Z,102328.81
2022-12-04T20:40:03.037Z,102336.72
2022-12-04T20:42:46.987Z,102335.78
2022-12-04T20:45:26.487Z,102328.88
2022-12-04T20:48:05.260Z,102333.22
